sensor_id;sensor_type;location;lat;lon;timestamp;temperature;humidity
66831;DHT22;53739;44.224;22.528;2022-08-18T00:01:45;640.90;2073.60
66831;DHT22;53739;44.224;22.528;2022-08-18T00:04:13;640.80;2073.60
66831;DHT22;53739;44.224;22.528;2022-08-18T00:06:40;640.80;2073.60
66831;DHT22;53739;44.224;22.528;2022-08-18T00:09:08;640.80;2099.20
66831;DHT22;53739;44.224;22.528;2022-08-18T00:11:39;640.80;2022.40
66831;DHT22;53739;44.224;22.528;2022-08-18T00:14:06;640.90;2022.40
66831;DHT22;53739;44.224;22.528;2022-08-18T00:16:32;665.60;2048.00
66831;DHT22;53739;44.224;22.528;2022-08-18T00:18:58;665.60;2048.00
66831;DHT22;53739;44.224;22.528;2022-08-18T00:21:24;640.90;2048.00
66831;DHT22;53739;44.224;22.528;2022-08-18T00:23:50;640.90;2073.60
66831;DHT22;53739;44.224;22.528;2022-08-18T00:26:16;640.90;2099.20
66831;DHT22;53739;44.224;22.528;2022-08-18T00:28:42;640.80;2073.60
66831;DHT22;53739;44.224;22.528;2022-08-18T00:31:08;640.70;2099.20
66831;DHT22;53739;44.224;22.528;2022-08-18T00:33:34;640.70;2099.20
66831;DHT22;53739;44.224;22.528;2022-08-18T00:35:59;640.60;2099.20
66831;DHT22;53739;44.224;22.528;2022-08-18T00:38:25;640.60;2099.20
66831;DHT22;53739;44.224;22.528;2022-08-18T00:40:53;640.50;2124.80
66831;DHT22;53739;44.224;22.528;2022-08-18T00:43:25;640.40;2150.40
66831;DHT22;53739;44.224;22.528;2022-08-18T00:45:53;640.20;2150.40
66831;DHT22;53739;44.224;22.528;2022-08-18T00:48:19;640.30;2124.80
66831;DHT22;53739;44.224;22.528;2022-08-18T00:51:01;640.40;2150.40
66831;DHT22;53739;44.224;22.528;2022-08-18T00:53:37;640.20;2124.80
66831;DHT22;53739;44.224;22.528;2022-08-18T00:56:10;640.20;2150.40
66831;DHT22;53739;44.224;22.528;2022-08-18T00:58:43;640.20;2150.40
66831;DHT22;53739;44.224;22.528;2022-08-18T01:01:12;640.00;2201.60
66831;DHT22;53739;44.224;22.528;2022-08-18T01:03:39;640.00;2176.00
66831;DHT22;53739;44.224;22.528;2022-08-18T01:06:15;640.00;2176.00
66831;DHT22;53739;44.224;22.528;2022-08-18T01:08:42;640.00;2201.60
66831;DHT22;53739;44.224;22.528;2022-08-18T01:11:08;615.20;2201.60
66831;DHT22;53739;44.224;22.528;2022-08-18T01:13:35;615.20;2227.20
66831;DHT22;53739;44.224;22.528;2022-08-18T01:16:03;615.20;2201.60
66831;DHT22;53739;44.224;22.528;2022-08-18T01:18:49;615.20;2227.20
66831;DHT22;53739;44.224;22.528;2022-08-18T01:21:39;615.10;2227.20
66831;DHT22;53739;44.224;22.528;2022-08-18T01:24:15;615.10;2252.80
66831;DHT22;53739;44.224;22.528;2022-08-18T01:26:43;615.10;2252.80
66831;DHT22;53739;44.224;22.528;2022-08-18T01:29:15;615.00;2278.40
66831;DHT22;53739;44.224;22.528;2022-08-18T01:31:51;615.00;2278.40
66831;DHT22;53739;44.224;22.528;2022-08-18T01:34:21;614.90;2278.40
66831;DHT22;53739;44.224;22.528;2022-08-18T01:36:49;614.90;2278.40
66831;DHT22;53739;44.224;22.528;2022-08-18T01:39:20;614.80;2304.00
66831;DHT22;53739;44.224;22.528;2022-08-18T01:41:46;614.80;2304.00
66831;DHT22;53739;44.224;22.528;2022-08-18T01:44:12;614.80;2304.00
66831;DHT22;53739;44.224;22.528;2022-08-18T01:46:40;614.80;2329.60
66831;DHT22;53739;44.224;22.528;2022-08-18T01:49:07;614.80;2329.60
66831;DHT22;53739;44.224;22.528;2022-08-18T01:51:34;614.80;2329.60
66831;DHT22;53739;44.224;22.528;2022-08-18T01:54:03;614.80;2329.60
66831;DHT22;53739;44.224;22.528;2022-08-18T01:56:29;614.80;2355.20
66831;DHT22;53739;44.224;22.528;2022-08-18T01:58:55;614.80;2329.60
66831;DHT22;53739;44.224;22.528;2022-08-18T02:01:22;614.60;2355.20
66831;DHT22;53739;44.224;22.528;2022-08-18T02:03:51;614.60;2380.80
66831;DHT22;53739;44.224;22.528;2022-08-18T02:06:19;614.60;2380.80
66831;DHT22;53739;44.224;22.528;2022-08-18T02:08:46;614.60;2355.20
66831;DHT22;53739;44.224;22.528;2022-08-18T02:11:12;614.40;2380.80
66831;DHT22;53739;44.224;22.528;2022-08-18T02:13:38;614.50;2380.80
66831;DHT22;53739;44.224;22.528;2022-08-18T02:16:05;614.40;2406.40
66831;DHT22;53739;44.224;22.528;2022-08-18T02:18:34;614.40;2380.80
66831;DHT22;53739;44.224;22.528;2022-08-18T02:21:20;614.50;2380.80
66831;DHT22;53739;44.224;22.528;2022-08-18T02:23:47;614.40;2406.40
66831;DHT22;53739;44.224;22.528;2022-08-18T02:26:15;614.50;2406.40
66831;DHT22;53739;44.224;22.528;2022-08-18T02:28:42;614.40;2406.40
66831;DHT22;53739;44.224;22.528;2022-08-18T02:31:20;614.40;2406.40
66831;DHT22;53739;44.224;22.528;2022-08-18T02:33:46;614.40;2432.00
66831;DHT22;53739;44.224;22.528;2022-08-18T02:36:13;614.40;2432.00
66831;DHT22;53739;44.224;22.528;2022-08-18T02:38:40;589.70;2432.00
66831;DHT22;53739;44.224;22.528;2022-08-18T02:41:08;589.70;2432.00
66831;DHT22;53739;44.224;22.528;2022-08-18T02:43:35;589.50;2432.00
66831;DHT22;53739;44.224;22.528;2022-08-18T02:46:02;589.30;2432.00
66831;DHT22;53739;44.224;22.528;2022-08-18T02:48:28;589.20;2432.00
66831;DHT22;53739;44.224;22.528;2022-08-18T02:51:08;589.20;2432.00
66831;DHT22;53739;44.224;22.528;2022-08-18T02:53:42;589.20;2432.00
66831;DHT22;53739;44.224;22.528;2022-08-18T02:59:05;589.10;2432.00
66831;DHT22;53739;44.224;22.528;2022-08-18T03:01:37;589.10;2432.00
66831;DHT22;53739;44.224;22.528;2022-08-18T03:04:05;589.10;2432.00
66831;DHT22;53739;44.224;22.528;2022-08-18T03:06:33;589.10;2432.00
66831;DHT22;53739;44.224;22.528;2022-08-18T03:09:00;588.90;2432.00
66831;DHT22;53739;44.224;22.528;2022-08-18T03:11:28;588.90;2432.00
66831;DHT22;53739;44.224;22.528;2022-08-18T03:13:54;588.90;2432.00
66831;DHT22;53739;44.224;22.528;2022-08-18T03:16:21;588.90;2432.00
66831;DHT22;53739;44.224;22.528;2022-08-18T03:18:50;588.80;2432.00
66831;DHT22;53739;44.224;22.528;2022-08-18T03:21:26;588.80;2432.00
66831;DHT22;53739;44.224;22.528;2022-08-18T03:23:54;564.10;2432.00
66831;DHT22;53739;44.224;22.528;2022-08-18T03:26:22;564.10;2432.00
66831;DHT22;53739;44.224;22.528;2022-08-18T03:28:51;564.10;2432.00
66831;DHT22;53739;44.224;22.528;2022-08-18T03:31:19;564.00;2432.00
66831;DHT22;53739;44.224;22.528;2022-08-18T03:33:46;564.00;2432.00
66831;DHT22;53739;44.224;22.528;2022-08-18T03:36:15;564.10;2432.00
66831;DHT22;53739;44.224;22.528;2022-08-18T03:38:42;564.00;2432.00
66831;DHT22;53739;44.224;22.528;2022-08-18T03:41:10;563.90;2432.00
66831;DHT22;53739;44.224;22.528;2022-08-18T03:43:37;563.90;2432.00
66831;DHT22;53739;44.224;22.528;2022-08-18T03:46:09;563.90;2432.00
66831;DHT22;53739;44.224;22.528;2022-08-18T03:48:36;564.00;2432.00
66831;DHT22;53739;44.224;22.528;2022-08-18T03:51:04;563.90;2432.00
66831;DHT22;53739;44.224;22.528;2022-08-18T03:53:31;563.70;2432.00
66831;DHT22;53739;44.224;22.528;2022-08-18T03:55:59;563.80;2432.00
66831;DHT22;53739;44.224;22.528;2022-08-18T03:58:26;563.90;2432.00
66831;DHT22;53739;44.224;22.528;2022-08-18T04:00:52;563.90;2432.00
66831;DHT22;53739;44.224;22.528;2022-08-18T04:03:17;563.90;2432.00
66831;DHT22;53739;44.224;22.528;2022-08-18T04:05:43;563.90;2432.00
66831;DHT22;53739;44.224;22.528;2022-08-18T04:08:10;563.90;2432.00
66831;DHT22;53739;44.224;22.528;2022-08-18T04:10:35;563.80;2432.00
66831;DHT22;53739;44.224;22.528;2022-08-18T04:13:01;563.90;2432.00
66831;DHT22;53739;44.224;22.528;2022-08-18T04:15:30;563.90;2432.00
66831;DHT22;53739;44.224;22.528;2022-08-18T04:18:00;564.00;2432.00
66831;DHT22;53739;44.224;22.528;2022-08-18T04:20:33;564.00;2432.00
66831;DHT22;53739;44.224;22.528;2022-08-18T04:22:59;564.00;2432.00
66831;DHT22;53739;44.224;22.528;2022-08-18T04:25:25;564.00;2432.00
66831;DHT22;53739;44.224;22.528;2022-08-18T04:27:52;564.00;2432.00
66831;DHT22;53739;44.224;22.528;2022-08-18T04:30:23;564.00;2432.00
66831;DHT22;53739;44.224;22.528;2022-08-18T04:32:48;564.00;2432.00
66831;DHT22;53739;44.224;22.528;2022-08-18T04:35:16;564.10;2432.00
66831;DHT22;53739;44.224;22.528;2022-08-18T04:37:41;564.10;2432.00
66831;DHT22;53739;44.224;22.528;2022-08-18T04:40:09;588.80;2432.00
66831;DHT22;53739;44.224;22.528;2022-08-18T04:42:36;588.90;2432.00
66831;DHT22;53739;44.224;22.528;2022-08-18T04:45:02;589.00;2432.00
66831;DHT22;53739;44.224;22.528;2022-08-18T04:47:28;589.10;2432.00
66831;DHT22;53739;44.224;22.528;2022-08-18T04:49:53;589.20;2432.00
66831;DHT22;53739;44.224;22.528;2022-08-18T04:52:19;589.20;2432.00
66831;DHT22;53739;44.224;22.528;2022-08-18T04:55:04;589.30;2432.00
66831;DHT22;53739;44.224;22.528;2022-08-18T04:57:30;589.40;2432.00
66831;DHT22;53739;44.224;22.528;2022-08-18T04:59:58;589.60;2432.00
66831;DHT22;53739;44.224;22.528;2022-08-18T05:02:24;589.60;2432.00
66831;DHT22;53739;44.224;22.528;2022-08-18T05:04:50;589.70;2432.00
66831;DHT22;53739;44.224;22.528;2022-08-18T05:07:19;614.40;2432.00
66831;DHT22;53739;44.224;22.528;2022-08-18T05:09:45;614.50;2432.00
66831;DHT22;53739;44.224;22.528;2022-08-18T05:12:13;614.60;2432.00
66831;DHT22;53739;44.224;22.528;2022-08-18T05:14:40;614.80;2432.00
66831;DHT22;53739;44.224;22.528;2022-08-18T05:17:06;614.80;2432.00
66831;DHT22;53739;44.224;22.528;2022-08-18T05:19:32;615.00;2432.00
66831;DHT22;53739;44.224;22.528;2022-08-18T05:22:00;615.20;2432.00
66831;DHT22;53739;44.224;22.528;2022-08-18T05:24:27;640.00;2432.00
66831;DHT22;53739;44.224;22.528;2022-08-18T05:26:53;640.10;2432.00
66831;DHT22;53739;44.224;22.528;2022-08-18T05:29:21;640.30;2432.00
66831;DHT22;53739;44.224;22.528;2022-08-18T05:31:51;640.40;2432.00
66831;DHT22;53739;44.224;22.528;2022-08-18T05:34:20;640.70;2432.00
66831;DHT22;53739;44.224;22.528;2022-08-18T05:39:50;665.70;2432.00
66831;DHT22;53739;44.224;22.528;2022-08-18T05:42:19;665.70;2432.00
66831;DHT22;53739;44.224;22.528;2022-08-18T05:44:48;665.80;2432.00
66831;DHT22;53739;44.224;22.528;2022-08-18T05:47:26;666.20;2432.00
66831;DHT22;53739;44.224;22.528;2022-08-18T05:49:54;666.50;2432.00
66831;DHT22;53739;44.224;22.528;2022-08-18T05:52:26;691.30;2432.00
66831;DHT22;53739;44.224;22.528;2022-08-18T05:55:45;691.40;2432.00
66831;DHT22;53739;44.224;22.528;2022-08-18T05:58:17;691.60;2432.00
66831;DHT22;53739;44.224;22.528;2022-08-18T06:00:50;691.80;2432.00
66831;DHT22;53739;44.224;22.528;2022-08-18T06:03:28;691.90;2432.00
66831;DHT22;53739;44.224;22.528;2022-08-18T06:06:09;692.10;2432.00
66831;DHT22;53739;44.224;22.528;2022-08-18T06:08:43;717.00;2432.00
66831;DHT22;53739;44.224;22.528;2022-08-18T06:11:09;717.20;2432.00
66831;DHT22;53739;44.224;22.528;2022-08-18T06:13:39;717.20;2432.00
66831;DHT22;53739;44.224;22.528;2022-08-18T06:16:24;717.40;2432.00
66831;DHT22;53739;44.224;22.528;2022-08-18T06:21:50;742.80;2355.20
66831;DHT22;53739;44.224;22.528;2022-08-18T06:24:27;743.00;2380.80
66831;DHT22;53739;44.224;22.528;2022-08-18T06:27:21;743.10;2304.00
66831;DHT22;53739;44.224;22.528;2022-08-18T06:30:19;768.10;2278.40
66831;DHT22;53739;44.224;22.528;2022-08-18T06:33:09;768.40;2252.80
66831;DHT22;53739;44.224;22.528;2022-08-18T06:35:54;768.80;2278.40
66831;DHT22;53739;44.224;22.528;2022-08-18T06:41:16;794.20;2124.80
66831;DHT22;53739;44.224;22.528;2022-08-18T06:43:44;794.40;2124.80
66831;DHT22;53739;44.224;22.528;2022-08-18T06:46:19;819.50;2099.20
66831;DHT22;53739;44.224;22.528;2022-08-18T06:49:00;819.80;2073.60
66831;DHT22;53739;44.224;22.528;2022-08-18T06:51:28;844.80;1996.80
66831;DHT22;53739;44.224;22.528;2022-08-18T06:53:59;845.10;2048.00
66831;DHT22;53739;44.224;22.528;2022-08-18T06:56:32;845.30;2022.40
66831;DHT22;53739;44.224;22.528;2022-08-18T07:01:51;870.60;1868.80
66831;DHT22;53739;44.224;22.528;2022-08-18T07:04:40;870.60;1945.60
66831;DHT22;53739;44.224;22.528;2022-08-18T07:07:37;870.70;1868.80
66831;DHT22;53739;44.224;22.528;2022-08-18T07:10:07;870.60;1920.00
66831;DHT22;53739;44.224;22.528;2022-08-18T07:12:51;870.60;1843.20
66831;DHT22;53739;44.224;22.528;2022-08-18T07:15:23;870.50;1843.20
66831;DHT22;53739;44.224;22.528;2022-08-18T07:17:49;870.80;1817.60
66831;DHT22;53739;44.224;22.528;2022-08-18T07:20:23;871.10;1868.80
66831;DHT22;53739;44.224;22.528;2022-08-18T07:25:47;871.10;1868.80
66831;DHT22;53739;44.224;22.528;2022-08-18T07:31:19;871.00;1766.40
66831;DHT22;53739;44.224;22.528;2022-08-18T07:34:06;870.90;1792.00
66831;DHT22;53739;44.224;22.528;2022-08-18T07:36:41;871.00;1740.80
66831;DHT22;53739;44.224;22.528;2022-08-18T07:39:28;871.10;1715.20
66831;DHT22;53739;44.224;22.528;2022-08-18T07:42:10;870.90;1689.60
66831;DHT22;53739;44.224;22.528;2022-08-18T07:45:14;870.90;1740.80
66831;DHT22;53739;44.224;22.528;2022-08-18T07:50:19;871.10;1740.80
66831;DHT22;53739;44.224;22.528;2022-08-18T07:52:58;871.30;1638.40
66831;DHT22;53739;44.224;22.528;2022-08-18T07:55:30;871.30;1664.00
66831;DHT22;53739;44.224;22.528;2022-08-18T07:58:14;896.20;1689.60
66831;DHT22;53739;44.224;22.528;2022-08-18T08:01:37;896.30;1612.80
66831;DHT22;53739;44.224;22.528;2022-08-18T08:09:06;896.80;1792.00
66831;DHT22;53739;44.224;22.528;2022-08-18T08:22:57;922.10;1638.40
66831;DHT22;53739;44.224;22.528;2022-08-18T08:33:53;922.40;1484.80
66831;DHT22;53739;44.224;22.528;2022-08-18T08:36:27;922.30;1510.40
66831;DHT22;53739;44.224;22.528;2022-08-18T08:38:58;922.20;1536.00
66831;DHT22;53739;44.224;22.528;2022-08-18T08:41:37;922.00;1484.80
66831;DHT22;53739;44.224;22.528;2022-08-18T08:44:28;922.00;1561.60
66831;DHT22;53739;44.224;22.528;2022-08-18T08:47:11;921.80;1459.20
66831;DHT22;53739;44.224;22.528;2022-08-18T08:52:28;922.00;1484.80
66831;DHT22;53739;44.224;22.528;2022-08-18T08:55:23;922.00;1536.00
66831;DHT22;53739;44.224;22.528;2022-08-18T08:58:31;922.20;1510.40
66831;DHT22;53739;44.224;22.528;2022-08-18T09:00:58;922.20;1484.80
66831;DHT22;53739;44.224;22.528;2022-08-18T09:03:39;922.20;1484.80
66831;DHT22;53739;44.224;22.528;2022-08-18T09:12:22;922.50;1510.40
66831;DHT22;53739;44.224;22.528;2022-08-18T09:20:29;922.00;1408.00
66831;DHT22;53739;44.224;22.528;2022-08-18T09:23:12;922.10;1408.00
66831;DHT22;53739;44.224;22.528;2022-08-18T09:25:44;922.40;1408.00
66831;DHT22;53739;44.224;22.528;2022-08-18T09:28:39;922.50;1408.00
66831;DHT22;53739;44.224;22.528;2022-08-18T09:33:33;947.20;1408.00
66831;DHT22;53739;44.224;22.528;2022-08-18T09:36:21;947.20;1433.60
66831;DHT22;53739;44.224;22.528;2022-08-18T09:38:54;947.30;1382.40
66831;DHT22;53739;44.224;22.528;2022-08-18T09:41:56;947.30;1331.20
66831;DHT22;53739;44.224;22.528;2022-08-18T09:44:57;947.50;1331.20
66831;DHT22;53739;44.224;22.528;2022-08-18T09:49:56;948.00;1433.60
66831;DHT22;53739;44.224;22.528;2022-08-18T10:00:40;948.10;1254.40
66831;DHT22;53739;44.224;22.528;2022-08-18T10:03:20;948.10;1408.00
66831;DHT22;53739;44.224;22.528;2022-08-18T10:06:19;972.80;1305.60
66831;DHT22;53739;44.224;22.528;2022-08-18T10:09:03;948.10;1254.40
66831;DHT22;53739;44.224;22.528;2022-08-18T10:11:44;972.80;1254.40
66831;DHT22;53739;44.224;22.528;2022-08-18T10:22:48;973.00;1100.80
66831;DHT22;53739;44.224;22.528;2022-08-18T10:25:37;973.10;1280.00
66831;DHT22;53739;44.224;22.528;2022-08-18T10:28:06;973.00;1152.00
66831;DHT22;53739;44.224;22.528;2022-08-18T10:33:03;972.80;1152.00
66831;DHT22;53739;44.224;22.528;2022-08-18T10:38:10;948.10;1203.20
66831;DHT22;53739;44.224;22.528;2022-08-18T10:40:42;948.00;1126.40
66831;DHT22;53739;44.224;22.528;2022-08-18T10:45:56;948.00;1254.40
66831;DHT22;53739;44.224;22.528;2022-08-18T10:48:25;948.10;1203.20
66831;DHT22;53739;44.224;22.528;2022-08-18T10:54:17;972.80;1305.60
66831;DHT22;53739;44.224;22.528;2022-08-18T10:56:49;972.80;1177.60
66831;DHT22;53739;44.224;22.528;2022-08-18T11:04:47;973.20;1203.20
66831;DHT22;53739;44.224;22.528;2022-08-18T11:07:27;973.20;1228.80
66831;DHT22;53739;44.224;22.528;2022-08-18T11:09:56;973.30;1126.40
66831;DHT22;53739;44.224;22.528;2022-08-18T11:15:23;973.20;1203.20
66831;DHT22;53739;44.224;22.528;2022-08-18T11:20:36;973.00;1280.00
66831;DHT22;53739;44.224;22.528;2022-08-18T11:23:12;972.80;1228.80
66831;DHT22;53739;44.224;22.528;2022-08-18T11:25:39;973.10;1203.20
66831;DHT22;53739;44.224;22.528;2022-08-18T11:28:21;973.20;1152.00
66831;DHT22;53739;44.224;22.528;2022-08-18T11:30:51;973.40;1177.60
66831;DHT22;53739;44.224;22.528;2022-08-18T11:33:19;973.20;1203.20
66831;DHT22;53739;44.224;22.528;2022-08-18T11:35:52;973.40;1152.00
66831;DHT22;53739;44.224;22.528;2022-08-18T11:38:22;973.30;1203.20
66831;DHT22;53739;44.224;22.528;2022-08-18T11:40:53;973.10;1126.40
66831;DHT22;53739;44.224;22.528;2022-08-18T11:43:32;973.10;1228.80
66831;DHT22;53739;44.224;22.528;2022-08-18T11:48:50;973.40;1152.00
66831;DHT22;53739;44.224;22.528;2022-08-18T11:56:22;973.40;1228.80
66831;DHT22;53739;44.224;22.528;2022-08-18T12:09:21;973.70;1152.00
66831;DHT22;53739;44.224;22.528;2022-08-18T12:14:58;973.60;1177.60
66831;DHT22;53739;44.224;22.528;2022-08-18T12:17:26;973.50;1280.00
66831;DHT22;53739;44.224;22.528;2022-08-18T12:19:52;973.40;1100.80
66831;DHT22;53739;44.224;22.528;2022-08-18T12:22:23;973.50;1177.60
66831;DHT22;53739;44.224;22.528;2022-08-18T12:24:50;973.40;1075.20
66831;DHT22;53739;44.224;22.528;2022-08-18T12:27:19;973.30;1254.40
66831;DHT22;53739;44.224;22.528;2022-08-18T12:29:46;973.40;1228.80
66831;DHT22;53739;44.224;22.528;2022-08-18T12:32:13;973.30;1152.00
66831;DHT22;53739;44.224;22.528;2022-08-18T12:34:39;973.20;1152.00
66831;DHT22;53739;44.224;22.528;2022-08-18T12:37:07;973.20;1254.40
66831;DHT22;53739;44.224;22.528;2022-08-18T12:39:34;973.40;1305.60
66831;DHT22;53739;44.224;22.528;2022-08-18T12:42:00;973.30;1228.80
66831;DHT22;53739;44.224;22.528;2022-08-18T12:44:27;973.30;1305.60
66831;DHT22;53739;44.224;22.528;2022-08-18T12:46:53;973.30;1177.60
66831;DHT22;53739;44.224;22.528;2022-08-18T12:49:23;973.20;1203.20
66831;DHT22;53739;44.224;22.528;2022-08-18T12:51:50;973.30;1203.20
66831;DHT22;53739;44.224;22.528;2022-08-18T12:54:17;973.20;1177.60
66831;DHT22;53739;44.224;22.528;2022-08-18T12:56:45;973.20;1177.60
66831;DHT22;53739;44.224;22.528;2022-08-18T12:59:12;973.10;1203.20
66831;DHT22;53739;44.224;22.528;2022-08-18T13:01:39;973.30;1254.40
66831;DHT22;53739;44.224;22.528;2022-08-18T13:04:09;973.20;1254.40
66831;DHT22;53739;44.224;22.528;2022-08-18T13:06:39;973.30;1228.80
66831;DHT22;53739;44.224;22.528;2022-08-18T13:09:06;973.40;1177.60
66831;DHT22;53739;44.224;22.528;2022-08-18T13:11:32;973.50;1177.60
66831;DHT22;53739;44.224;22.528;2022-08-18T13:13:58;973.30;1228.80
66831;DHT22;53739;44.224;22.528;2022-08-18T13:16:26;973.40;1203.20
66831;DHT22;53739;44.224;22.528;2022-08-18T13:18:52;973.10;1152.00
66831;DHT22;53739;44.224;22.528;2022-08-18T13:21:18;973.00;1152.00
66831;DHT22;53739;44.224;22.528;2022-08-18T13:23:44;972.80;1100.80
66831;DHT22;53739;44.224;22.528;2022-08-18T13:26:29;948.10;1126.40
66831;DHT22;53739;44.224;22.528;2022-08-18T13:28:56;972.90;1177.60
66831;DHT22;53739;44.224;22.528;2022-08-18T13:31:22;972.90;1305.60
66831;DHT22;53739;44.224;22.528;2022-08-18T13:33:49;973.00;1305.60
66831;DHT22;53739;44.224;22.528;2022-08-18T13:36:15;973.00;1152.00
66831;DHT22;53739;44.224;22.528;2022-08-18T13:38:41;973.00;1177.60
66831;DHT22;53739;44.224;22.528;2022-08-18T13:41:08;972.90;1203.20
66831;DHT22;53739;44.224;22.528;2022-08-18T13:43:37;972.80;1177.60
66831;DHT22;53739;44.224;22.528;2022-08-18T13:46:08;972.80;1152.00
66831;DHT22;53739;44.224;22.528;2022-08-18T13:48:34;972.80;1152.00
66831;DHT22;53739;44.224;22.528;2022-08-18T13:51:02;972.80;1203.20
66831;DHT22;53739;44.224;22.528;2022-08-18T13:53:29;972.80;1126.40
66831;DHT22;53739;44.224;22.528;2022-08-18T13:55:56;972.90;1177.60
66831;DHT22;53739;44.224;22.528;2022-08-18T13:58:22;973.00;1152.00
66831;DHT22;53739;44.224;22.528;2022-08-18T14:00:58;973.00;1152.00
66831;DHT22;53739;44.224;22.528;2022-08-18T14:03:24;972.80;1203.20
66831;DHT22;53739;44.224;22.528;2022-08-18T14:05:50;948.10;1177.60
66831;DHT22;53739;44.224;22.528;2022-08-18T14:08:18;948.10;1203.20
66831;DHT22;53739;44.224;22.528;2022-08-18T14:10:49;972.80;1228.80
66831;DHT22;53739;44.224;22.528;2022-08-18T14:13:17;972.80;1126.40
66831;DHT22;53739;44.224;22.528;2022-08-18T14:15:44;948.10;1075.20
66831;DHT22;53739;44.224;22.528;2022-08-18T14:18:11;948.10;1152.00
66831;DHT22;53739;44.224;22.528;2022-08-18T14:20:37;972.80;1100.80
66831;DHT22;53739;44.224;22.528;2022-08-18T14:23:21;972.80;1203.20
66831;DHT22;53739;44.224;22.528;2022-08-18T14:26:05;948.10;1100.80
66831;DHT22;53739;44.224;22.528;2022-08-18T14:28:49;948.10;1152.00
66831;DHT22;53739;44.224;22.528;2022-08-18T14:31:15;948.10;1100.80
66831;DHT22;53739;44.224;22.528;2022-08-18T14:33:43;948.10;1152.00
66831;DHT22;53739;44.224;22.528;2022-08-18T14:36:09;948.00;1126.40
66831;DHT22;53739;44.224;22.528;2022-08-18T14:38:36;948.00;1126.40
66831;DHT22;53739;44.224;22.528;2022-08-18T14:41:04;948.10;1126.40
66831;DHT22;53739;44.224;22.528;2022-08-18T14:43:31;948.00;1126.40
66831;DHT22;53739;44.224;22.528;2022-08-18T14:45:58;948.00;1152.00
66831;DHT22;53739;44.224;22.528;2022-08-18T14:48:24;948.10;1075.20
66831;DHT22;53739;44.224;22.528;2022-08-18T14:50:53;948.00;1100.80
66831;DHT22;53739;44.224;22.528;2022-08-18T14:53:22;948.00;1049.60
66831;DHT22;53739;44.224;22.528;2022-08-18T14:55:50;947.90;1100.80
66831;DHT22;53739;44.224;22.528;2022-08-18T14:58:24;947.70;1126.40
66831;DHT22;53739;44.224;22.528;2022-08-18T15:01:07;947.50;1100.80
66831;DHT22;53739;44.224;22.528;2022-08-18T15:03:35;947.40;1126.40
66831;DHT22;53739;44.224;22.528;2022-08-18T15:06:03;947.30;1126.40
66831;DHT22;53739;44.224;22.528;2022-08-18T15:08:30;947.20;1203.20
66831;DHT22;53739;44.224;22.528;2022-08-18T15:10:57;922.50;1152.00
66831;DHT22;53739;44.224;22.528;2022-08-18T15:13:24;922.50;1152.00
66831;DHT22;53739;44.224;22.528;2022-08-18T15:15:50;947.30;1100.80
66831;DHT22;53739;44.224;22.528;2022-08-18T15:18:16;947.20;1075.20
66831;DHT22;53739;44.224;22.528;2022-08-18T15:20:44;947.20;1152.00
66831;DHT22;53739;44.224;22.528;2022-08-18T15:23:28;922.50;1100.80
66831;DHT22;53739;44.224;22.528;2022-08-18T15:26:17;922.40;1126.40
66831;DHT22;53739;44.224;22.528;2022-08-18T15:28:45;922.40;1100.80
66831;DHT22;53739;44.224;22.528;2022-08-18T15:31:11;922.40;1100.80
66831;DHT22;53739;44.224;22.528;2022-08-18T15:33:37;922.40;1100.80
66831;DHT22;53739;44.224;22.528;2022-08-18T15:36:03;922.20;1203.20
66831;DHT22;53739;44.224;22.528;2022-08-18T15:38:29;922.20;1100.80
66831;DHT22;53739;44.224;22.528;2022-08-18T15:40:57;922.10;1126.40
66831;DHT22;53739;44.224;22.528;2022-08-18T15:43:25;922.00;1126.40
66831;DHT22;53739;44.224;22.528;2022-08-18T15:45:52;921.80;1152.00
66831;DHT22;53739;44.224;22.528;2022-08-18T15:48:20;921.70;1152.00
66831;DHT22;53739;44.224;22.528;2022-08-18T15:50:48;921.60;1152.00
66831;DHT22;53739;44.224;22.528;2022-08-18T15:53:25;896.90;1177.60
66831;DHT22;53739;44.224;22.528;2022-08-18T15:55:52;896.90;1126.40
66831;DHT22;53739;44.224;22.528;2022-08-18T15:58:18;896.90;1152.00
66831;DHT22;53739;44.224;22.528;2022-08-18T16:00:46;896.90;1152.00
66831;DHT22;53739;44.224;22.528;2022-08-18T16:03:14;896.80;1152.00
66831;DHT22;53739;44.224;22.528;2022-08-18T16:05:53;896.60;1177.60
66831;DHT22;53739;44.224;22.528;2022-08-18T16:08:24;896.50;1152.00
66831;DHT22;53739;44.224;22.528;2022-08-18T16:10:51;896.30;1228.80
66831;DHT22;53739;44.224;22.528;2022-08-18T16:13:17;896.20;1203.20
66831;DHT22;53739;44.224;22.528;2022-08-18T16:15:44;896.10;1228.80
66831;DHT22;53739;44.224;22.528;2022-08-18T16:18:14;871.30;1228.80
66831;DHT22;53739;44.224;22.528;2022-08-18T16:20:41;871.20;1203.20
66831;DHT22;53739;44.224;22.528;2022-08-18T16:23:08;871.20;1203.20
66831;DHT22;53739;44.224;22.528;2022-08-18T16:25:39;871.10;1254.40
66831;DHT22;53739;44.224;22.528;2022-08-18T16:28:05;871.10;1254.40
66831;DHT22;53739;44.224;22.528;2022-08-18T16:30:32;871.00;1280.00
66831;DHT22;53739;44.224;22.528;2022-08-18T16:33:03;870.80;1280.00
66831;DHT22;53739;44.224;22.528;2022-08-18T16:35:30;870.70;1280.00
66831;DHT22;53739;44.224;22.528;2022-08-18T16:38:05;870.70;1254.40
66831;DHT22;53739;44.224;22.528;2022-08-18T16:40:32;870.60;1228.80
66831;DHT22;53739;44.224;22.528;2022-08-18T16:42:57;870.60;1254.40
66831;DHT22;53739;44.224;22.528;2022-08-18T16:45:25;870.50;1280.00
66831;DHT22;53739;44.224;22.528;2022-08-18T16:47:52;870.40;1280.00
66831;DHT22;53739;44.224;22.528;2022-08-18T16:50:18;845.70;1305.60
66831;DHT22;53739;44.224;22.528;2022-08-18T16:52:44;845.70;1280.00
66831;DHT22;53739;44.224;22.528;2022-08-18T16:55:11;845.60;1356.80
66831;DHT22;53739;44.224;22.528;2022-08-18T16:57:38;845.40;1305.60
66831;DHT22;53739;44.224;22.528;2022-08-18T17:00:23;845.40;1331.20
66831;DHT22;53739;44.224;22.528;2022-08-18T17:03:08;845.30;1356.80
66831;DHT22;53739;44.224;22.528;2022-08-18T17:06:04;845.20;1356.80
66831;DHT22;53739;44.224;22.528;2022-08-18T17:08:31;845.00;1382.40